Time;durP1;ratioP1;P1;durP2;ratioP2;P2;SDS_P1;SDS_P2;PMS_P1;PMS_P2;Temp;Humidity;BMP_temperature;BMP_pressure;BME280_temperature;BME280_humidity;BME280_pressure;Samples;Min_cycle;Max_cycle;Signal;HPM_P1;HPM_P2
2022/10/10 00:00:48;;;;;;;2.20;2.00;;;18.40;58.40;19.40;100761.00;;;;4968047;28;20248;-49
2022/10/10 00:03:14;;;;;;;2.00;1.90;;;18.30;58.30;19.40;100758.00;;;;4970316;28;20187;-49
2022/10/10 00:05:39;;;;;;;2.20;2.00;;;18.30;58.30;19.40;100756.00;;;;4969440;28;20173;-50
2022/10/10 00:08:06;;;;;;;2.20;2.00;;;18.30;58.40;19.30;100759.00;;;;4969669;28;20705;-49
2022/10/10 00:10:31;;;;;;;2.17;1.97;;;18.30;58.40;19.30;100759.00;;;;4969623;28;20198;-49
2022/10/10 00:12:58;;;;;;;2.20;2.00;;;18.30;58.40;19.30;100753.00;;;;4969269;28;20271;-50
2022/10/10 00:15:24;;;;;;;2.33;1.90;;;18.30;58.40;19.30;100749.00;;;;4968747;28;20716;-51
2022/10/10 00:17:50;;;;;;;2.90;2.00;;;18.30;58.40;19.30;100754.00;;;;4969166;28;20200;-50
2022/10/10 00:20:17;;;;;;;2.00;1.90;;;18.30;58.30;19.30;100749.00;;;;4969306;28;20178;-49
2022/10/10 00:22:43;;;;;;;2.10;1.90;;;18.20;58.30;19.30;100752.00;;;;4969308;28;20188;-49
2022/10/10 00:25:09;;;;;;;2.13;1.90;;;18.20;58.40;19.30;100762.00;;;;4967658;28;20177;-50
2022/10/10 00:27:35;;;;;;;1.90;1.80;;;18.20;58.40;19.30;100750.00;;;;4967815;28;20196;-49
2022/10/10 00:30:03;;;;;;;1.93;1.80;;;18.20;58.40;19.30;100762.00;;;;4968908;28;20769;-49
2022/10/10 00:32:29;;;;;;;2.13;1.90;;;18.20;58.50;19.20;100752.00;;;;4968148;28;20208;-49
2022/10/10 00:34:55;;;;;;;2.10;1.90;;;18.20;58.50;19.20;100756.00;;;;4969153;28;20203;-49
2022/10/10 00:37:20;;;;;;;2.13;1.93;;;18.20;58.50;19.20;100746.00;;;;4969048;28;20204;-50
2022/10/10 00:39:46;;;;;;;2.00;1.90;;;18.20;58.60;19.20;100752.00;;;;4969821;28;20185;-50
2022/10/10 00:42:13;;;;;;;2.20;2.00;;;18.10;58.40;19.20;100754.00;;;;4972442;28;20248;-49
2022/10/10 00:44:40;;;;;;;1.90;1.77;;;18.10;58.40;19.20;100758.00;;;;4972142;28;20176;-50
2022/10/10 00:47:06;;;;;;;1.90;1.80;;;18.10;58.40;19.20;100747.00;;;;4972451;28;20204;-50
2022/10/10 00:49:32;;;;;;;1.70;1.60;;;18.10;58.50;19.20;100742.00;;;;4972656;28;20765;-50
2022/10/10 00:51:58;;;;;;;1.93;1.80;;;18.10;59.10;19.20;100747.00;;;;4971049;28;20291;-50
2022/10/10 00:54:24;;;;;;;2.70;2.10;;;18.10;58.50;19.10;100746.00;;;;4972289;28;20259;-50
2022/10/10 00:56:59;;;;;;;1.90;1.80;;;18.10;58.50;19.10;100747.00;;;;4972367;28;20208;-49
2022/10/10 00:59:25;;;;;;;2.10;1.90;;;18.10;58.50;19.10;100748.00;;;;4971090;28;20189;-50
2022/10/10 01:01:51;;;;;;;2.87;1.97;;;18.10;58.50;19.10;100738.00;;;;4971019;28;20183;-49
2022/10/10 01:04:39;;;;;;;1.93;1.83;;;18.10;58.50;19.10;100735.00;;;;4972009;28;20205;-49
2022/10/10 01:07:09;;;;;;;2.23;2.03;;;18.10;58.50;19.10;100728.00;;;;4971843;28;20197;-50
2022/10/10 01:09:36;;;;;;;2.07;1.90;;;18.10;58.50;19.00;100715.00;;;;4970802;28;20657;-49
2022/10/10 01:12:34;;;;;;;2.17;2.00;;;18.00;58.40;19.10;100732.00;;;;4970940;28;20260;-49
2022/10/10 01:15:47;;;;;;;1.80;1.70;;;18.00;58.40;19.00;100721.00;;;;4970571;28;20676;-49
2022/10/10 01:18:30;;;;;;;2.37;1.90;;;18.00;58.50;19.00;100721.00;;;;4962256;28;20184;-49
2022/10/10 01:21:23;;;;;;;1.80;1.70;;;18.00;59.10;19.00;100732.00;;;;4971918;28;20168;-49
2022/10/10 01:24:32;;;;;;;1.90;1.80;;;17.90;58.40;19.00;100729.00;;;;4971492;28;20201;-50
2022/10/10 01:27:33;;;;;;;2.10;1.90;;;18.00;58.50;19.00;100720.00;;;;4970762;28;20200;-49
2022/10/10 01:30:10;;;;;;;1.93;1.83;;;17.90;58.40;18.90;100734.00;;;;4971814;28;20185;-49
2022/10/10 01:33:05;;;;;;;1.80;1.70;;;17.90;58.70;18.90;100724.00;;;;4970319;28;20232;-49
2022/10/10 01:35:40;;;;;;;1.90;1.80;;;17.90;58.40;18.90;100722.00;;;;4969993;28;20176;-50
2022/10/10 01:38:40;;;;;;;2.10;1.90;;;17.90;58.50;18.90;100722.00;;;;4971402;28;20723;-51
2022/10/10 01:41:20;;;;;;;2.20;2.00;;;17.90;58.50;18.90;100720.00;;;;4970076;28;20656;-49
2022/10/10 01:43:54;;;;;;;1.80;1.70;;;17.90;58.50;18.90;100707.00;;;;4969830;28;20190;-48
2022/10/10 01:46:20;;;;;;;1.90;1.70;;;17.90;58.50;18.90;100710.00;;;;4969943;28;20215;-49
2022/10/10 01:48:49;;;;;;;2.23;1.80;;;17.80;58.40;18.90;100699.00;;;;4971892;28;20189;-51
2022/10/10 01:51:24;;;;;;;2.03;1.90;;;17.80;58.40;18.90;100709.00;;;;4969342;28;20189;-49
2022/10/10 01:54:15;;;;;;;1.90;1.80;;;17.80;58.40;18.80;100714.00;;;;4970794;28;20227;-50
2022/10/10 01:56:48;;;;;;;2.00;1.90;;;17.80;58.40;18.80;100701.00;;;;4969894;28;20575;-49
2022/10/10 01:59:37;;;;;;;2.83;1.80;;;17.80;58.40;18.80;100709.00;;;;4970061;28;20209;-48
2022/10/10 02:02:19;;;;;;;1.73;1.60;;;17.80;58.40;18.80;100700.00;;;;4969913;28;20169;-50
2022/10/10 02:04:52;;;;;;;1.83;1.73;;;17.80;58.50;18.80;100701.00;;;;4969625;28;20174;-51
2022/10/10 02:07:42;;;;;;;1.90;1.80;;;17.80;58.40;18.80;100703.00;;;;4969758;28;20258;-50
2022/10/10 02:10:08;;;;;;;1.80;1.70;;;17.80;58.50;18.80;100698.00;;;;4970076;28;20804;-49
2022/10/10 02:12:34;;;;;;;1.90;1.80;;;17.70;58.40;18.80;100699.00;;;;4969426;28;20301;-49
2022/10/10 02:15:16;;;;;;;1.83;1.73;;;17.80;58.40;18.80;100694.00;;;;4969547;28;20595;-50
2022/10/10 02:17:42;;;;;;;2.00;1.90;;;17.80;58.50;18.80;100698.00;;;;4954515;28;20195;-50
2022/10/10 02:20:09;;;;;;;1.97;1.80;;;17.70;58.40;18.80;100701.00;;;;4969544;28;20185;-49
2022/10/10 02:22:35;;;;;;;2.67;2.00;;;17.70;58.40;18.80;100693.00;;;;4969267;28;20269;-49
2022/10/10 02:25:01;;;;;;;1.90;1.80;;;17.70;58.40;18.70;100695.00;;;;4969156;28;20187;-51
2022/10/10 02:28:06;;;;;;;1.90;1.80;;;17.60;58.30;18.70;100695.00;;;;4969064;28;20650;-49
2022/10/10 02:30:34;;;;;;;1.90;1.80;;;17.60;58.30;18.70;100686.00;;;;4940294;28;20192;-49
2022/10/10 02:33:00;;;;;;;2.00;1.90;;;17.60;58.30;18.70;100677.00;;;;4968779;28;20207;-49
2022/10/10 02:35:32;;;;;;;2.00;1.90;;;17.60;58.40;18.70;100688.00;;;;4969113;28;20173;-48
2022/10/10 02:37:59;;;;;;;1.80;1.70;;;17.60;58.30;18.70;100676.00;;;;4969205;28;20209;-50
2022/10/10 02:40:27;;;;;;;1.80;1.70;;;17.70;58.50;18.70;100686.00;;;;4969380;28;20260;-49
2022/10/10 02:42:53;;;;;;;1.70;1.60;;;17.70;58.50;18.70;100664.00;;;;4969026;28;20175;-50
2022/10/10 02:45:19;;;;;;;1.80;1.70;;;17.60;58.40;18.70;100673.00;;;;4968728;28;20318;-49
2022/10/10 02:47:45;;;;;;;2.60;1.97;;;17.60;58.50;18.70;100675.00;;;;4967092;28;20213;-50
2022/10/10 02:50:10;;;;;;;2.60;1.90;;;17.60;58.60;18.60;100680.00;;;;4967750;28;20188;-49
2022/10/10 02:52:36;;;;;;;2.00;1.87;;;17.60;58.70;18.60;100675.00;;;;4966867;28;20255;-50
2022/10/10 02:55:02;;;;;;;1.83;1.73;;;17.60;58.60;18.60;100669.00;;;;4967375;28;20514;-49
2022/10/10 02:57:28;;;;;;;2.03;1.90;;;17.60;58.60;18.60;100671.00;;;;4969298;28;20233;-49
2022/10/10 02:59:54;;;;;;;2.63;1.83;;;17.60;58.60;18.60;100674.00;;;;4969460;28;20205;-50
2022/10/10 03:02:20;;;;;;;1.83;1.73;;;17.60;58.60;18.60;100670.00;;;;4969317;28;20190;-50
2022/10/10 03:04:45;;;;;;;2.20;2.00;;;17.60;58.60;18.60;100653.00;;;;4969652;28;20184;-49
2022/10/10 03:07:11;;;;;;;1.90;1.80;;;17.60;58.70;18.60;100661.00;;;;4968838;28;20200;-49
2022/10/10 03:09:37;;;;;;;1.80;1.70;;;17.50;58.50;18.60;100662.00;;;;4969487;28;20175;-48
2022/10/10 03:12:03;;;;;;;3.13;2.00;;;17.50;58.50;18.60;100655.00;;;;4969476;28;20207;-49
2022/10/10 03:14:28;;;;;;;1.90;1.80;;;17.50;58.50;18.60;100657.00;;;;4968976;28;20176;-48
2022/10/10 03:16:54;;;;;;;2.67;1.93;;;17.50;58.50;18.50;100661.00;;;;4969510;28;20258;-49
2022/10/10 03:19:20;;;;;;;2.13;2.00;;;17.50;58.60;18.60;100656.00;;;;4969021;28;20234;-51
2022/10/10 03:21:45;;;;;;;2.07;1.90;;;17.50;58.60;18.60;100655.00;;;;4968735;28;20233;-50
2022/10/10 03:24:11;;;;;;;2.00;1.80;;;17.50;58.70;18.60;100666.00;;;;4968729;28;20250;-50
2022/10/10 03:26:37;;;;;;;3.83;2.00;;;17.50;58.60;18.50;100652.00;;;;4969164;28;20193;-50
2022/10/10 03:29:03;;;;;;;5.00;2.10;;;17.50;58.70;18.50;100649.00;;;;4968986;28;20614;-52
2022/10/10 03:31:29;;;;;;;3.30;2.20;;;17.50;59.60;18.50;100651.00;;;;4968544;28;20226;-49
2022/10/10 03:33:54;;;;;;;2.80;2.00;;;17.50;58.90;18.50;100655.00;;;;4969553;28;20201;-49
2022/10/10 03:36:20;;;;;;;3.10;1.90;;;17.50;58.80;18.50;100650.00;;;;4969469;28;20206;-49
2022/10/10 03:38:46;;;;;;;6.03;1.97;;;17.50;58.60;18.50;100646.00;;;;4969193;28;20194;-49
2022/10/10 03:41:12;;;;;;;4.97;1.90;;;17.50;58.70;18.50;100650.00;;;;4968913;28;20182;-48
2022/10/10 03:43:37;;;;;;;8.40;2.10;;;17.50;58.70;18.50;100651.00;;;;4968536;28;20186;-48
2022/10/10 03:46:03;;;;;;;3.07;1.90;;;17.40;58.70;18.50;100647.00;;;;4969121;28;20207;-50
2022/10/10 03:48:29;;;;;;;2.17;1.97;;;17.40;58.70;18.50;100652.00;;;;4969842;28;20186;-50
2022/10/10 03:50:55;;;;;;;4.70;1.90;;;17.40;58.60;18.50;100644.00;;;;4969349;28;20189;-50
2022/10/10 03:53:21;;;;;;;5.27;1.90;;;17.40;58.60;18.50;100650.00;;;;4969526;28;20657;-50
2022/10/10 03:55:47;;;;;;;6.13;2.20;;;17.40;58.60;18.40;100643.00;;;;4968461;28;20179;-48
2022/10/10 03:58:12;;;;;;;3.23;2.20;;;17.30;58.60;18.40;100648.00;;;;4969446;28;20200;-49
2022/10/10 04:00:38;;;;;;;3.93;2.00;;;17.40;58.70;18.40;100651.00;;;;4969394;28;20187;-49
2022/10/10 04:03:05;;;;;;;3.57;2.03;;;17.40;58.70;18.40;100641.00;;;;4969821;28;20208;-50
2022/10/10 04:05:37;;;;;;;5.93;2.00;;;17.30;58.50;18.40;100648.00;;;;4969149;28;20188;-50
2022/10/10 04:08:03;;;;;;;2.10;1.90;;;17.30;58.50;18.40;100647.00;;;;4969601;28;20232;-49
2022/10/10 04:10:29;;;;;;;2.20;1.90;;;17.30;58.50;18.40;100644.00;;;;4969511;28;20234;-49
2022/10/10 04:12:55;;;;;;;3.27;2.00;;;17.30;58.50;18.40;100642.00;;;;4969185;28;20546;-48
2022/10/10 04:15:20;;;;;;;6.23;2.20;;;17.30;58.60;18.40;100642.00;;;;4972727;28;20201;-50
2022/10/10 04:17:46;;;;;;;6.97;2.10;;;17.30;58.70;18.40;100622.00;;;;4972990;28;20205;-49
2022/10/10 04:20:12;;;;;;;6.93;2.47;;;17.30;58.80;18.40;100640.00;;;;4973119;28;20260;-49
2022/10/10 04:22:38;;;;;;;4.80;2.20;;;17.30;58.80;18.40;100638.00;;;;4972069;28;20226;-49
2022/10/10 04:25:04;;;;;;;3.47;2.30;;;17.30;58.80;18.30;100629.00;;;;4972116;28;20190;-49
2022/10/10 04:27:30;;;;;;;4.53;2.20;;;17.30;58.80;18.30;100633.00;;;;4972713;28;20210;-49
2022/10/10 04:29:55;;;;;;;4.47;2.13;;;17.30;58.80;18.30;100632.00;;;;4973053;28;20175;-49
2022/10/10 04:32:21;;;;;;;7.10;2.03;;;17.30;59.00;18.30;100642.00;;;;4972591;28;20212;-50
2022/10/10 04:34:47;;;;;;;7.10;2.10;;;17.30;58.80;18.30;100615.00;;;;4971738;28;20522;-49
2022/10/10 04:37:13;;;;;;;5.00;2.00;;;17.20;58.70;18.30;100633.00;;;;4973086;28;20203;-50
2022/10/10 04:39:39;;;;;;;4.43;2.00;;;17.30;58.90;18.30;100633.00;;;;4973134;28;20709;-50
2022/10/10 04:42:05;;;;;;;4.40;2.23;;;17.20;58.90;18.30;100631.00;;;;4971798;28;20180;-50
2022/10/10 04:44:30;;;;;;;4.90;2.00;;;17.20;58.90;18.30;100639.00;;;;4972452;28;20235;-51
2022/10/10 04:46:56;;;;;;;3.17;2.20;;;17.20;59.10;18.30;100640.00;;;;4971524;28;20247;-51
2022/10/10 04:49:22;;;;;;;3.63;2.10;;;17.20;59.10;18.30;100635.00;;;;4971863;28;20713;-48
2022/10/10 04:51:48;;;;;;;3.93;2.07;;;17.20;59.10;18.30;100631.00;;;;4971888;28;20203;-50
2022/10/10 04:54:13;;;;;;;2.43;2.10;;;17.20;59.10;18.20;100627.00;;;;4971611;28;20270;-50
2022/10/10 04:56:41;;;;;;;10.23;3.07;;;17.20;59.20;18.20;100631.00;;;;4972502;28;20208;-49
2022/10/10 04:59:08;;;;;;;9.47;3.10;;;17.20;59.20;18.20;100627.00;;;;4972683;28;20149;-48
2022/10/10 05:01:33;;;;;;;12.43;3.40;;;17.10;59.00;18.20;100624.00;;;;4972554;28;20217;-49
2022/10/10 05:03:59;;;;;;;8.50;3.47;;;17.00;58.80;18.10;100638.00;;;;4971112;28;20648;-48
2022/10/10 05:06:25;;;;;;;13.27;3.37;;;17.00;58.80;18.10;100640.00;;;;4972644;28;20211;-48
2022/10/10 05:08:51;;;;;;;10.33;3.10;;;17.00;58.80;18.10;100645.00;;;;4972141;28;20191;-48
2022/10/10 05:11:16;;;;;;;14.10;3.33;;;17.00;58.70;18.00;100642.00;;;;4971966;28;20205;-49
2022/10/10 05:13:42;;;;;;;8.70;2.90;;;17.00;58.70;18.10;100642.00;;;;4972413;28;20219;-48
2022/10/10 05:16:08;;;;;;;9.87;3.10;;;17.10;58.70;18.10;100649.00;;;;4971495;28;20198;-47
2022/10/10 05:18:36;;;;;;;11.50;3.23;;;17.10;58.70;18.10;100640.00;;;;4972360;28;20183;-48
2022/10/10 05:21:02;;;;;;;10.90;3.23;;;17.10;58.60;18.10;100652.00;;;;4971884;28;20192;-51
2022/10/10 05:23:28;;;;;;;12.23;3.47;;;17.00;58.60;18.10;100642.00;;;;4972524;28;20625;-49
2022/10/10 05:25:53;;;;;;;12.77;3.33;;;17.00;58.50;18.10;100640.00;;;;4971745;28;20174;-50
2022/10/10 05:28:19;;;;;;;10.20;3.27;;;17.00;58.50;18.10;100641.00;;;;4971927;28;20182;-49
2022/10/10 05:30:45;;;;;;;6.10;3.37;;;17.00;58.50;18.10;100647.00;;;;4970412;28;20179;-48
2022/10/10 05:33:10;;;;;;;6.47;3.20;;;17.00;58.60;18.10;100639.00;;;;4971566;28;20740;-50
2022/10/10 05:35:36;;;;;;;6.73;3.20;;;17.00;58.60;18.10;100636.00;;;;4972103;28;20262;-50
2022/10/10 05:38:02;;;;;;;6.23;2.93;;;17.00;58.60;18.10;100636.00;;;;4971881;28;20217;-48
2022/10/10 05:40:28;;;;;;;5.63;3.07;;;17.00;58.60;18.10;100649.00;;;;4971830;28;20161;-48
2022/10/10 05:42:53;;;;;;;4.70;2.80;;;17.00;58.70;18.10;100647.00;;;;4971823;28;20338;-48
2022/10/10 05:45:19;;;;;;;6.60;2.90;;;17.00;58.70;18.10;100639.00;;;;4971870;28;20668;-48
2022/10/10 05:47:45;;;;;;;4.10;2.90;;;17.00;58.80;18.10;100635.00;;;;4971947;28;20224;-47
2022/10/10 05:50:35;;;;;;;6.30;2.63;;;17.00;58.80;18.00;100634.00;;;;4972108;28;20849;-49
2022/10/10 05:53:01;;;;;;;6.57;2.60;;;17.00;58.80;18.00;100643.00;;;;4973022;28;20200;-49
2022/10/10 05:55:26;;;;;;;4.77;2.83;;;17.00;58.80;18.00;100630.00;;;;4971415;28;20185;-50
2022/10/10 05:57:52;;;;;;;6.80;3.13;;;17.00;58.80;18.00;100640.00;;;;4971669;28;20283;-49
2022/10/10 06:00:18;;;;;;;6.73;2.73;;;16.90;58.80;18.00;100638.00;;;;4971746;28;20185;-49
2022/10/10 06:02:44;;;;;;;4.47;2.80;;;16.90;58.90;18.00;100639.00;;;;4971742;28;20188;-49
2022/10/10 06:05:09;;;;;;;4.00;2.77;;;16.90;58.90;18.00;100641.00;;;;4971808;28;20184;-50
2022/10/10 06:07:36;;;;;;;4.83;2.63;;;17.00;59.00;18.00;100634.00;;;;4971596;28;20212;-50
2022/10/10 06:10:02;;;;;;;4.50;2.50;;;16.90;58.90;18.00;100611.00;;;;4970349;28;20177;-50
2022/10/10 06:12:28;;;;;;;5.33;2.60;;;16.90;58.90;18.00;100643.00;;;;4970537;28;20206;-48
2022/10/10 06:14:53;;;;;;;3.77;2.70;;;16.90;58.90;17.90;100632.00;;;;4971159;28;20175;-50
2022/10/10 06:17:19;;;;;;;6.40;2.60;;;16.90;58.80;17.90;100642.00;;;;4971001;28;20204;-49
2022/10/10 06:19:45;;;;;;;4.50;2.70;;;16.90;58.80;17.90;100638.00;;;;4971067;28;20256;-49
2022/10/10 06:22:11;;;;;;;6.57;2.70;;;16.90;58.80;17.90;100639.00;;;;4970969;28;20385;-49
2022/10/10 06:24:37;;;;;;;5.23;2.30;;;16.90;58.90;17.90;100644.00;;;;4969697;28;20207;-49
2022/10/10 06:27:02;;;;;;;7.73;2.50;;;16.90;58.90;17.90;100646.00;;;;4970892;28;20203;-50
2022/10/10 06:29:28;;;;;;;4.17;2.47;;;16.90;58.90;17.90;100647.00;;;;4969413;28;20189;-50
2022/10/10 06:31:54;;;;;;;4.00;2.33;;;16.90;58.90;17.90;100641.00;;;;4969256;28;20181;-50
2022/10/10 06:34:20;;;;;;;4.07;2.73;;;16.80;58.80;17.90;100653.00;;;;4970573;28;20179;-49
2022/10/10 06:36:48;;;;;;;2.63;2.40;;;16.80;58.80;17.90;100647.00;;;;4970583;28;20200;-49
2022/10/10 06:39:13;;;;;;;3.57;2.27;;;16.80;58.80;17.90;100646.00;;;;4969746;28;20186;-48
2022/10/10 06:41:39;;;;;;;3.60;2.40;;;16.80;58.90;17.90;100653.00;;;;4968210;28;20208;-49
2022/10/10 06:44:05;;;;;;;3.93;2.60;;;16.80;58.90;17.90;100653.00;;;;4970685;28;20192;-50
2022/10/10 06:46:33;;;;;;;5.20;2.40;;;16.80;58.80;17.90;100653.00;;;;4970554;28;20201;-49
2022/10/10 06:48:58;;;;;;;2.90;2.20;;;16.80;58.90;17.90;100660.00;;;;4971040;28;20248;-49
2022/10/10 06:51:24;;;;;;;4.37;2.53;;;16.80;58.90;17.80;100660.00;;;;4969672;28;20311;-49
2022/10/10 06:53:50;;;;;;;3.00;2.20;;;16.80;59.50;17.90;100661.00;;;;4969107;28;20206;-49
2022/10/10 06:56:20;;;;;;;2.87;2.57;;;16.80;58.90;17.90;100665.00;;;;4969321;28;20293;-49
2022/10/10 06:58:47;;;;;;;2.77;2.40;;;16.80;59.00;17.90;100667.00;;;;4881361;28;20315;-50
2022/10/10 07:01:14;;;;;;;3.30;2.50;;;16.80;59.10;17.80;100662.00;;;;4949112;28;20651;-49
2022/10/10 07:03:39;;;;;;;2.93;2.17;;;16.80;59.00;17.80;100670.00;;;;4953895;28;20171;-48
2022/10/10 07:06:07;;;;;;;2.93;2.43;;;16.80;59.00;17.80;100655.00;;;;4989018;28;20388;-48
2022/10/10 07:08:33;;;;;;;2.60;2.40;;;16.80;59.10;17.80;100679.00;;;;4988757;28;20169;-49
2022/10/10 07:10:59;;;;;;;3.17;2.30;;;16.80;59.10;17.80;100678.00;;;;4989481;28;20190;-50
2022/10/10 07:13:24;;;;;;;2.80;2.13;;;16.70;59.00;17.80;100690.00;;;;4989197;28;20632;-49
2022/10/10 07:15:50;;;;;;;3.60;2.43;;;16.80;59.10;17.80;100677.00;;;;4985279;28;20649;-49
2022/10/10 07:18:17;;;;;;;2.30;2.10;;;16.80;59.10;17.80;100606.00;;;;4970560;28;20662;-52
2022/10/10 07:20:43;;;;;;;4.33;2.33;;;16.70;59.10;17.80;100683.00;;;;4971009;28;20176;-49
2022/10/10 07:23:09;;;;;;;2.60;2.40;;;16.70;59.10;17.80;100685.00;;;;4969968;28;20181;-49
2022/10/10 07:25:38;;;;;;;4.33;2.30;;;16.70;59.20;17.80;100679.00;;;;4969690;28;20174;-49
2022/10/10 07:28:05;;;;;;;2.60;2.23;;;16.80;59.30;17.80;100671.00;;;;4969511;28;20201;-49
2022/10/10 07:30:30;;;;;;;2.83;2.57;;;16.70;59.20;17.80;100679.00;;;;4969097;28;20174;-48
2022/10/10 07:32:56;;;;;;;9.60;2.70;;;16.70;59.20;17.70;100686.00;;;;4969590;28;20203;-49
2022/10/10 07:35:22;;;;;;;2.97;2.30;;;16.70;59.60;17.80;100689.00;;;;4969335;28;20186;-49
2022/10/10 07:37:49;;;;;;;5.73;2.40;;;16.70;59.60;17.80;100699.00;;;;4969065;28;20201;-49
2022/10/10 07:40:15;;;;;;;2.80;2.40;;;16.70;59.60;17.80;100693.00;;;;4952402;28;20828;-49
2022/10/10 07:42:41;;;;;;;4.87;2.40;;;16.80;59.70;17.80;100700.00;;;;4969709;28;20193;-49
2022/10/10 07:45:08;;;;;;;3.23;2.40;;;16.70;59.70;17.80;100698.00;;;;4969694;28;20181;-49
2022/10/10 07:47:34;;;;;;;3.13;2.67;;;16.80;59.80;17.80;100695.00;;;;4978509;28;20264;-48
2022/10/10 07:50:00;;;;;;;4.83;2.80;;;16.80;60.20;17.80;100702.00;;;;4988656;28;20176;-48
2022/10/10 07:52:26;;;;;;;2.67;2.30;;;16.80;60.30;17.80;100704.00;;;;4977487;28;20558;-48
2022/10/10 07:54:51;;;;;;;6.83;2.40;;;16.80;60.30;17.70;100694.00;;;;4969265;28;20387;-48
2022/10/10 07:57:17;;;;;;;3.70;2.30;;;16.80;60.30;17.70;100688.00;;;;4969104;28;20206;-49
2022/10/10 07:59:44;;;;;;;4.13;2.50;;;16.70;60.20;17.80;100693.00;;;;4933114;28;20632;-49
2022/10/10 08:02:10;;;;;;;3.33;2.30;;;16.80;60.40;17.80;100695.00;;;;4988382;28;20203;-49
2022/10/10 08:04:36;;;;;;;3.27;2.50;;;16.70;60.30;17.80;100694.00;;;;4988100;28;20201;-49
2022/10/10 08:07:02;;;;;;;3.80;2.40;;;16.80;60.40;17.80;100695.00;;;;4988915;28;20668;-50
2022/10/10 08:09:28;;;;;;;3.63;2.33;;;16.80;60.50;17.80;100696.00;;;;4988526;28;20161;-50
2022/10/10 08:11:53;;;;;;;3.20;2.60;;;16.80;60.50;17.80;100705.00;;;;4988283;28;20183;-49
2022/10/10 08:14:19;;;;;;;3.20;2.50;;;16.70;60.50;17.70;100705.00;;;;4987736;28;20210;-49
2022/10/10 08:16:45;;;;;;;4.17;2.67;;;16.80;60.50;17.70;100699.00;;;;4972847;28;20204;-50
2022/10/10 08:19:10;;;;;;;4.17;2.60;;;16.70;60.60;17.70;100698.00;;;;4968669;28;20713;-50
2022/10/10 08:21:36;;;;;;;3.23;2.27;;;16.70;60.90;17.70;100705.00;;;;4968808;28;20251;-50
2022/10/10 08:24:02;;;;;;;5.03;2.50;;;16.70;61.20;17.70;100687.00;;;;4968656;28;20296;-47
2022/10/10 08:26:28;;;;;;;7.27;2.50;;;16.70;61.50;17.70;100685.00;;;;4969075;28;20245;-49
2022/10/10 08:28:53;;;;;;;5.37;2.50;;;16.80;61.80;17.70;100680.00;;;;4968400;28;20184;-48
2022/10/10 08:31:20;;;;;;;2.57;2.37;;;16.80;61.50;17.70;100690.00;;;;4967920;28;20184;-48
2022/10/10 08:33:46;;;;;;;3.40;2.40;;;16.80;61.30;17.70;100684.00;;;;4967687;28;20594;-48
2022/10/10 08:36:18;;;;;;;8.60;2.50;;;16.80;61.30;17.70;100690.00;;;;4968117;28;20251;-49
2022/10/10 08:38:43;;;;;;;13.13;3.00;;;16.80;61.40;17.70;100700.00;;;;4968125;28;20181;-50
2022/10/10 08:41:17;;;;;;;13.73;3.00;;;16.80;61.60;17.70;100689.00;;;;4969031;28;20228;-49
2022/10/10 08:43:56;;;;;;;13.67;2.77;;;16.90;61.80;17.70;100689.00;;;;4969121;28;20212;-49
2022/10/10 08:46:38;;;;;;;10.63;2.70;;;16.90;61.70;17.70;100700.00;;;;4952129;28;20204;-49
2022/10/10 08:49:31;;;;;;;9.73;2.80;;;16.90;61.90;17.70;100702.00;;;;4969255;28;20173;-49
2022/10/10 08:52:26;;;;;;;9.93;2.93;;;16.90;62.30;17.70;100700.00;;;;4953972;28;20612;-49
2022/10/10 08:54:52;;;;;;;6.47;2.60;;;16.90;62.30;17.70;100703.00;;;;4967719;28;20260;-50
2022/10/10 08:57:28;;;;;;;7.27;2.57;;;16.90;62.30;17.70;100709.00;;;;4967652;28;20595;-49
2022/10/10 08:59:58;;;;;;;8.83;2.57;;;16.90;62.40;17.80;100712.00;;;;4914880;28;20184;-50
2022/10/10 09:02:40;;;;;;;3.50;2.40;;;16.90;62.30;17.80;100708.00;;;;4970674;28;20293;-50
2022/10/10 09:05:13;;;;;;;4.93;2.40;;;16.90;62.40;17.80;100714.00;;;;4970014;28;20181;-49
2022/10/10 09:07:54;;;;;;;4.70;2.37;;;16.90;62.40;17.80;100710.00;;;;4971693;28;20197;-49
2022/10/10 09:10:43;;;;;;;5.77;2.87;;;16.90;62.40;17.80;100712.00;;;;4971432;28;20547;-49
2022/10/10 09:13:21;;;;;;;4.93;2.27;;;16.90;62.90;17.80;100724.00;;;;4970727;28;20204;-49
2022/10/10 09:15:57;;;;;;;5.40;2.80;;;16.90;62.70;17.80;100718.00;;;;4971367;28;20177;-48
2022/10/10 09:18:45;;;;;;;5.57;2.87;;;17.00;62.60;17.80;100715.00;;;;4955637;28;20173;-49
2022/10/10 09:21:24;;;;;;;8.20;3.10;;;17.00;62.60;17.80;100725.00;;;;4957526;28;20699;-49
2022/10/10 09:24:05;;;;;;;6.37;2.87;;;17.00;63.00;17.80;100734.00;;;;4971195;28;20181;-48
2022/10/10 09:26:38;;;;;;;4.97;2.63;;;17.00;62.90;17.80;100727.00;;;;4972150;28;20324;-48
2022/10/10 09:29:31;;;;;;;11.33;4.87;;;17.00;63.20;17.80;100724.00;;;;4971357;28;20166;-49
2022/10/10 09:32:17;;;;;;;15.67;7.57;;;17.00;64.20;17.80;100706.00;;;;4958212;28;20252;-50
2022/10/10 09:34:49;;;;;;;14.87;6.47;;;17.10;64.70;17.90;100717.00;;;;4964948;28;20190;-48
2022/10/10 09:37:22;;;;;;;16.33;7.53;;;17.10;64.70;17.90;100711.00;;;;4935368;29;20204;-51
2022/10/10 09:40:02;;;;;;;20.40;10.57;;;17.20;65.40;18.00;100725.00;;;;4948129;28;20188;-50
2022/10/10 09:42:35;;;;;;;18.93;10.60;;;17.20;67.00;18.00;100725.00;;;;4964688;28;20681;-49
2022/10/10 09:45:02;;;;;;;18.80;10.40;;;17.30;67.10;18.00;100723.00;;;;4989431;28;20186;-49
2022/10/10 09:47:28;;;;;;;19.37;11.90;;;17.30;67.30;18.10;100715.00;;;;4983973;28;20281;-49
2022/10/10 09:49:53;;;;;;;18.93;9.87;;;17.30;68.40;18.10;100718.00;;;;4974732;28;20181;-49
2022/10/10 09:52:28;;;;;;;14.40;9.30;;;17.30;67.50;18.10;100711.00;;;;4970172;28;20277;-49
2022/10/10 09:55:04;;;;;;;16.77;9.80;;;17.40;67.80;18.10;100707.00;;;;4974640;28;20176;-48
2022/10/10 09:57:37;;;;;;;16.37;9.47;;;17.40;68.10;18.10;100704.00;;;;4985617;28;20236;-50
2022/10/10 10:00:31;;;;;;;16.27;8.70;;;17.40;67.80;18.20;100708.00;;;;4940348;28;20196;-49
2022/10/10 10:03:07;;;;;;;14.67;9.17;;;17.40;67.20;18.20;100725.00;;;;4977589;28;20256;-50
2022/10/10 10:05:33;;;;;;;12.50;7.80;;;17.40;68.00;18.20;100706.00;;;;4987440;28;20167;-50
2022/10/10 10:07:59;;;;;;;15.20;8.03;;;17.50;67.60;18.20;100726.00;;;;4969829;28;20397;-50
2022/10/10 10:10:26;;;;;;;13.93;7.63;;;17.40;67.30;18.20;100708.00;;;;4969854;28;20297;-49
2022/10/10 10:12:52;;;;;;;12.80;7.50;;;17.40;66.60;18.20;100709.00;;;;4969969;28;20252;-49
2022/10/10 10:15:22;;;;;;;12.50;7.00;;;17.40;66.60;18.20;100704.00;;;;4969238;28;20227;-50
2022/10/10 10:18:16;;;;;;;10.97;7.00;;;17.40;66.60;18.20;100713.00;;;;4972679;28;20208;-50
2022/10/10 10:20:50;;;;;;;10.77;6.70;;;17.30;66.60;18.20;100712.00;;;;4990073;28;20807;-49
2022/10/10 10:23:34;;;;;;;10.33;6.70;;;17.40;66.70;18.20;100711.00;;;;4988589;28;20254;-50
2022/10/10 10:26:05;;;;;;;10.10;6.10;;;17.40;66.60;18.20;100712.00;;;;4989981;28;20261;-49
2022/10/10 10:28:39;;;;;;;10.13;6.40;;;17.40;66.60;18.20;100720.00;;;;4989900;28;20169;-50
2022/10/10 10:31:05;;;;;;;10.00;5.83;;;17.40;66.60;18.30;100725.00;;;;4989618;28;20213;-49
2022/10/10 10:34:02;;;;;;;8.83;5.97;;;17.40;66.60;18.30;100723.00;;;;4988605;28;20288;-49
2022/10/10 10:37:05;;;;;;;12.03;7.20;;;17.40;66.60;18.30;100721.00;;;;4988951;28;20188;-48
2022/10/10 10:39:37;;;;;;;13.80;8.27;;;17.50;67.20;18.30;100727.00;;;;4972033;28;20236;-51
2022/10/10 10:42:28;;;;;;;20.70;8.93;;;17.50;67.80;18.30;100729.00;;;;4971316;28;20182;-49
2022/10/10 10:45:20;;;;;;;14.30;8.10;;;17.60;67.60;18.30;100723.00;;;;4969634;28;20248;-49
2022/10/10 10:48:12;;;;;;;13.17;8.40;;;17.60;67.30;18.40;100724.00;;;;4970432;28;20869;-49
2022/10/10 10:50:52;;;;;;;12.20;7.60;;;17.60;67.50;18.40;100727.00;;;;4969951;28;20183;-49
2022/10/10 10:53:29;;;;;;;9.90;7.03;;;17.60;67.20;18.40;100738.00;;;;4965673;28;20198;-49
2022/10/10 10:56:25;;;;;;;12.60;6.80;;;17.70;67.00;18.40;100738.00;;;;4951028;29;20188;-48
2022/10/10 10:59:12;;;;;;;10.50;6.33;;;17.70;67.00;18.40;100740.00;;;;4914801;28;20194;-50